createdAt,value
2019-04-14T00:08:54.341Z,222.07
2019-04-14T00:14:01.019Z,281.40
2019-04-14T00:19:08.674Z,252.73
2019-04-14T00:24:16.573Z,298.37
2019-04-14T00:39:40.042Z,304.93
2019-04-14T00:44:47.931Z,252.63
2019-04-14T00:49:55.060Z,278.73
2019-04-14T00:55:01.605Z,421.93
2019-04-14T01:00:10.297Z,385.40
2019-04-14T01:05:17.430Z,211.77
2019-04-14T01:10:24.181Z,131.40
2019-04-14T01:15:32.397Z,97.73
2019-04-14T01:20:38.835Z,84.47
2019-04-14T01:25:45.333Z,75.27
2019-04-14T01:30:52.294Z,72.73
2019-04-14T01:35:59.628Z,64.63
2019-04-14T01:41:06.989Z,59.83
2019-04-14T01:46:18.454Z,60.67
2019-04-14T01:51:33.262Z,58.20
2019-04-14T01:56:58.061Z,52.05
2019-04-14T02:07:12.305Z,49.97
2019-04-14T02:12:19.221Z,49.37
2019-04-14T02:17:26.353Z,49.90
2019-04-14T02:22:33.434Z,48.87
2019-04-14T02:27:40.742Z,52.62
2019-04-14T02:33:17.226Z,53.10
2019-04-14T02:38:41.224Z,48.87
2019-04-14T02:43:30.188Z,49.18
2019-04-14T02:48:44.895Z,47.60
2019-04-14T02:58:52.402Z,47.33
2019-04-14T03:04:01.644Z,48.33
2019-04-14T03:09:12.971Z,49.88
2019-04-14T03:14:19.701Z,51.03
2019-04-14T03:19:25.021Z,47.37
2019-04-14T03:30:30.309Z,43.08
2019-04-14T03:35:27.113Z,44.23
2019-04-14T03:40:09.535Z,44.73
2019-04-14T03:50:24.489Z,45.85
2019-04-14T04:00:13.868Z,44.30
2019-04-14T04:10:25.599Z,45.17
2019-04-14T04:15:32.108Z,43.20
2019-04-14T04:20:41.321Z,42.90
2019-04-14T04:25:48.987Z,47.30
2019-04-14T04:30:56.534Z,46.03
2019-04-14T04:41:10.151Z,44.30
2019-04-14T04:46:16.280Z,39.27
2019-04-14T04:51:22.521Z,44.75
2019-04-14T04:56:29.704Z,41.20
2019-04-14T05:12:10.915Z,39.42
2019-04-14T05:17:21.606Z,41.53
2019-04-14T05:27:34.658Z,41.67
2019-04-14T05:37:48.567Z,39.40
2019-04-14T05:42:55.824Z,43.33
2019-04-14T05:48:03.143Z,43.63
2019-04-14T05:53:11.713Z,42.47
2019-04-14T05:58:18.602Z,42.13
2019-04-14T06:03:25.570Z,41.92
2019-04-14T06:08:31.759Z,38.53
2019-04-14T06:18:43.964Z,42.83
2019-04-14T06:23:49.859Z,42.30
2019-04-14T06:28:55.676Z,43.17
2019-04-14T06:34:03.274Z,40.47
2019-04-14T06:39:10.747Z,41.23
2019-04-14T06:49:22.696Z,39.70
2019-04-14T06:54:28.566Z,39.77
2019-04-14T07:04:40.394Z,42.73
2019-04-14T07:09:46.475Z,42.97
2019-04-14T07:14:52.641Z,41.37
2019-04-14T07:20:02.190Z,45.27
2019-04-14T07:25:06.338Z,45.80
2019-04-14T07:30:17.737Z,44.77
2019-04-14T07:35:41.829Z,44.10
2019-04-14T07:41:08.018Z,42.77
2019-04-14T07:51:39.020Z,43.27
2019-04-14T07:57:05.402Z,46.02
2019-04-14T08:02:13.032Z,41.07
2019-04-14T08:07:19.020Z,41.97
2019-04-14T08:17:31.733Z,36.57
2019-04-14T08:27:45.321Z,36.83
2019-04-14T08:32:51.288Z,38.10
2019-04-14T08:37:57.273Z,38.53
2019-04-14T08:43:20.329Z,40.57
2019-04-14T08:48:34.030Z,39.77
2019-04-14T08:53:44.355Z,40.33
2019-04-14T08:59:04.372Z,38.50
2019-04-14T09:04:22.720Z,35.97
2019-04-14T09:09:30.327Z,35.10
2019-04-14T09:14:36.314Z,36.40
2019-04-14T09:19:42.280Z,35.83
2019-04-14T09:24:48.278Z,32.70
2019-04-14T09:29:54.287Z,34.53
2019-04-14T09:35:00.290Z,38.77
2019-04-14T09:40:06.275Z,31.27
2019-04-14T09:50:18.301Z,27.58
2019-04-14T09:55:24.278Z,30.67
2019-04-14T10:10:42.028Z,31.03
2019-04-14T10:15:48.028Z,25.00
2019-04-14T13:57:52.130Z,169.68
2019-04-14T14:02:57.956Z,95.47
2019-04-14T14:08:04.867Z,113.97
2019-04-14T14:13:15.454Z,120.87
2019-04-14T14:18:25.751Z,44.70
2019-04-14T14:23:34.659Z,99.07
2019-04-14T14:28:41.556Z,231.93
2019-04-14T14:38:53.402Z,96.20
2019-04-14T14:43:59.480Z,26.60
2019-04-14T14:49:07.062Z,25.10
2019-04-14T14:54:13.046Z,145.83
2019-04-14T14:59:19.031Z,127.90
2019-04-14T15:04:25.019Z,88.03
2019-04-14T15:09:31.111Z,50.30
2019-04-14T15:14:37.412Z,65.50
2019-04-14T15:19:43.490Z,76.27
2019-04-14T15:24:49.697Z,83.10
2019-04-14T15:29:55.616Z,72.43
2019-04-14T15:40:08.134Z,220.40
2019-04-14T15:45:14.276Z,212.93
2019-04-14T15:50:21.621Z,160.33
2019-04-14T15:55:28.104Z,139.07
2019-04-14T16:00:43.417Z,251.37
2019-04-14T16:06:06.595Z,299.00
2019-04-14T16:11:30.473Z,149.03
2019-04-14T16:16:38.269Z,95.57
2019-04-14T16:21:44.280Z,45.90
2019-04-14T16:26:51.905Z,41.10
2019-04-14T16:32:03.782Z,33.97
2019-04-14T16:37:09.670Z,74.03
2019-04-14T16:47:21.794Z,197.20
2019-04-14T16:52:32.205Z,116.63
2019-04-14T16:57:55.800Z,302.70
2019-04-14T17:03:01.833Z,413.63
2019-04-14T17:13:13.663Z,219.97
2019-04-14T17:18:33.565Z,90.03
2019-04-14T17:23:44.081Z,96.90
2019-04-14T17:29:08.278Z,61.10
2019-04-14T17:34:18.623Z,41.93
2019-04-14T17:39:35.440Z,38.47
2019-04-14T17:44:59.569Z,45.53
2019-04-14T17:50:10.021Z,49.13
2019-04-14T17:55:27.827Z,79.37
2019-04-14T18:00:38.061Z,79.63
2019-04-14T18:05:58.461Z,118.27
2019-04-14T18:11:13.522Z,194.50
2019-04-14T18:16:30.365Z,211.23
2019-04-14T18:21:36.547Z,209.77
2019-04-14T18:26:43.175Z,166.37
2019-04-14T18:31:51.107Z,302.10
2019-04-14T18:37:01.826Z,160.28
2019-04-14T18:42:24.874Z,105.03
2019-04-14T18:53:03.645Z,104.33
2019-04-14T18:58:20.678Z,167.70
2019-04-14T19:03:26.746Z,135.60
2019-04-14T19:08:32.707Z,148.67
2019-04-14T19:18:54.619Z,153.68
2019-04-14T19:24:00.570Z,97.27
2019-04-14T19:29:06.542Z,88.45
2019-04-14T19:34:12.712Z,87.23
2019-04-14T19:39:18.780Z,140.40
2019-04-14T19:44:24.841Z,1067.03
2019-04-14T19:49:30.834Z,820.97
2019-04-14T20:00:00.492Z,571.77
2019-04-14T20:05:06.826Z,528.47
2019-04-14T20:10:13.774Z,500.77
2019-04-14T20:15:28.190Z,442.20
2019-04-14T20:25:48.769Z,385.20
2019-04-14T20:31:12.555Z,369.70
2019-04-14T20:36:18.839Z,378.97
2019-04-14T20:41:24.802Z,352.40
2019-04-14T20:46:31.095Z,303.60
2019-04-14T20:56:42.925Z,277.50
2019-04-14T21:01:57.414Z,291.87
2019-04-14T21:07:05.090Z,276.00
2019-04-14T21:17:31.681Z,265.87
2019-04-14T21:22:39.303Z,220.10
2019-04-14T21:27:47.920Z,229.77
2019-04-14T21:33:07.614Z,216.27
2019-04-14T21:38:29.786Z,232.77
2019-04-14T21:43:35.841Z,218.87
2019-04-14T21:48:41.802Z,294.60
2019-04-14T21:53:48.811Z,214.67
2019-04-14T21:59:02.402Z,179.18
2019-04-14T22:04:08.151Z,162.57
2019-04-14T22:09:18.795Z,138.30
2019-04-14T22:14:24.914Z,160.80
2019-04-14T22:24:37.119Z,147.70
2019-04-14T22:29:43.143Z,152.45
2019-04-14T22:39:55.143Z,122.55
2019-04-14T22:50:06.869Z,104.80
2019-04-14T22:55:12.807Z,177.13
2019-04-14T23:00:21.373Z,275.77
2019-04-14T23:05:33.149Z,274.40
2019-04-14T23:10:40.738Z,273.13
2019-04-14T23:15:52.600Z,241.40
2019-04-14T23:21:00.160Z,372.33
2019-04-14T23:31:12.553Z,208.57
2019-04-14T23:36:18.832Z,251.87
2019-04-14T23:41:24.797Z,278.67
2019-04-14T23:56:43.738Z,383.67
